sensor_id;sensor_type;location;lat;lon;timestamp;pressure;altitude;pressure_sealevel;temperature;humidity
11302;BME280;5706;50.650;13.380;2023-02-08T00:01:12;56423.66;;;-140.63;65.28
11302;BME280;5706;50.650;13.380;2023-02-08T00:03:42;56397.81;;;-140.63;64.73
11302;BME280;5706;50.650;13.380;2023-02-08T00:06:10;56421.69;;;-140.63;65.67
11302;BME280;5706;50.650;13.380;2023-02-08T00:08:39;56441.56;;;-140.63;65.31
11302;BME280;5706;50.650;13.380;2023-02-08T00:11:07;56395.84;;;-140.63;65.70
11302;BME280;5706;50.650;13.380;2023-02-08T00:13:37;56415.72;;;-140.63;65.88
11302;BME280;5706;50.650;13.380;2023-02-08T00:16:07;56399.81;;;-140.63;66.16
11302;BME280;5706;50.650;13.380;2023-02-08T00:18:36;56403.78;;;-140.63;66.75
11302;BME280;5706;50.650;13.380;2023-02-08T00:21:07;56421.69;;;-140.63;65.44
11302;BME280;5706;50.650;13.380;2023-02-08T00:23:35;56441.56;;;-140.63;66.21
11302;BME280;5706;50.650;13.380;2023-02-08T00:26:03;56445.53;;;-140.63;66.25
11302;BME280;5706;50.650;13.380;2023-02-08T00:28:31;56425.66;;;-140.63;65.34
11302;BME280;5706;50.650;13.380;2023-02-08T00:30:59;56457.47;;;-140.63;66.08
11302;BME280;5706;50.650;13.380;2023-02-08T00:33:29;56389.88;;;-140.63;65.30
11302;BME280;5706;50.650;13.380;2023-02-08T00:35:57;56433.59;;;-140.63;64.41
11302;BME280;5706;50.650;13.380;2023-02-08T00:38:25;56421.69;;;-140.63;65.50
11302;BME280;5706;50.650;13.380;2023-02-08T00:40:53;56373.97;;;-140.63;65.40
11302;BME280;5706;50.650;13.380;2023-02-08T00:43:21;56445.53;;;-140.63;64.97
11302;BME280;5706;50.650;13.380;2023-02-08T00:45:52;56427.66;;;-140.63;64.54
11302;BME280;5706;50.650;13.380;2023-02-08T00:48:20;56413.72;;;-140.63;65.05
11302;BME280;5706;50.650;13.380;2023-02-08T00:50:58;56435.59;;;-140.63;64.85
11302;BME280;5706;50.650;13.380;2023-02-08T00:53:26;56419.69;;;-140.63;63.63
11302;BME280;5706;50.650;13.380;2023-02-08T00:55:54;56427.66;;;-140.63;64.35
11302;BME280;5706;50.650;13.380;2023-02-08T00:58:23;56407.75;;;-140.63;64.75
11302;BME280;5706;50.650;13.380;2023-02-08T01:00:51;56457.47;;;-140.63;64.85
11302;BME280;5706;50.650;13.380;2023-02-08T01:03:19;56429.63;;;-140.63;64.20
11302;BME280;5706;50.650;13.380;2023-02-08T01:05:47;56425.66;;;-140.63;63.71
11302;BME280;5706;50.650;13.380;2023-02-08T01:08:16;56405.78;;;-140.63;63.82
11302;BME280;5706;50.650;13.380;2023-02-08T01:10:45;56427.66;;;-140.63;64.32
11302;BME280;5706;50.650;13.380;2023-02-08T01:13:13;56397.81;;;-140.63;64.03
11302;BME280;5706;50.650;13.380;2023-02-08T01:15:41;56421.69;;;-140.63;65.10
11302;BME280;5706;50.650;13.380;2023-02-08T01:18:09;56409.75;;;-140.63;64.28
11302;BME280;5706;50.650;13.380;2023-02-08T01:20:36;56403.78;;;-140.63;63.09
11302;BME280;5706;50.650;13.380;2023-02-08T01:23:04;56417.69;;;-140.63;63.98
11302;BME280;5706;50.650;13.380;2023-02-08T01:25:33;56407.75;;;-140.63;64.22
11302;BME280;5706;50.650;13.380;2023-02-08T01:28:01;56423.66;;;-140.63;64.39
11302;BME280;5706;50.650;13.380;2023-02-08T01:30:29;56437.59;;;-140.63;64.16
11302;BME280;5706;50.650;13.380;2023-02-08T01:32:57;56393.84;;;-140.63;64.34
11302;BME280;5706;50.650;13.380;2023-02-08T01:35:25;56417.69;;;-140.63;64.34
11302;BME280;5706;50.650;13.380;2023-02-08T01:37:52;56443.56;;;-140.63;64.74
11302;BME280;5706;50.650;13.380;2023-02-08T01:40:20;56407.75;;;-140.63;65.08
11302;BME280;5706;50.650;13.380;2023-02-08T01:42:49;56413.72;;;-140.63;64.19
11302;BME280;5706;50.650;13.380;2023-02-08T01:45:23;56413.72;;;-140.63;64.38
11302;BME280;5706;50.650;13.380;2023-02-08T01:47:57;56447.53;;;-140.63;65.12
11302;BME280;5706;50.650;13.380;2023-02-08T01:50:35;56433.59;;;-140.63;65.22
11302;BME280;5706;50.650;13.380;2023-02-08T01:53:07;56407.75;;;-140.63;65.30
11302;BME280;5706;50.650;13.380;2023-02-08T01:55:38;56433.59;;;-140.63;65.51
11302;BME280;5706;50.650;13.380;2023-02-08T01:58:14;56411.75;;;-140.63;65.22
11302;BME280;5706;50.650;13.380;2023-02-08T02:00:45;56403.78;;;-140.63;65.11
11302;BME280;5706;50.650;13.380;2023-02-08T02:03:13;56417.69;;;-140.63;64.63
11302;BME280;5706;50.650;13.380;2023-02-08T02:05:44;56421.69;;;-140.63;64.18
11302;BME280;5706;50.650;13.380;2023-02-08T02:08:15;56413.72;;;-140.63;63.75
11302;BME280;5706;50.650;13.380;2023-02-08T02:10:43;56423.66;;;-140.63;64.29
11302;BME280;5706;50.650;13.380;2023-02-08T02:13:17;56409.75;;;-140.63;63.99
11302;BME280;5706;50.650;13.380;2023-02-08T02:15:48;56415.72;;;-140.63;64.09
11302;BME280;5706;50.650;13.380;2023-02-08T02:18:21;56447.53;;;-140.63;63.54
11302;BME280;5706;50.650;13.380;2023-02-08T02:24:24;56401.78;;;-140.63;64.17
11302;BME280;5706;50.650;13.380;2023-02-08T02:27:39;56393.84;;;-140.63;64.18
11302;BME280;5706;50.650;13.380;2023-02-08T02:30:35;56399.81;;;-140.63;64.60
11302;BME280;5706;50.650;13.380;2023-02-08T02:33:38;56413.72;;;-140.63;63.07
11302;BME280;5706;50.650;13.380;2023-02-08T02:36:21;56429.63;;;-140.63;64.27
11302;BME280;5706;50.650;13.380;2023-02-08T02:39:04;56435.59;;;-140.63;63.58
11302;BME280;5706;50.650;13.380;2023-02-08T02:41:53;56423.66;;;-140.63;64.23
11302;BME280;5706;50.650;13.380;2023-02-08T02:44:53;56429.63;;;-140.63;63.62
11302;BME280;5706;50.650;13.380;2023-02-08T02:47:33;56451.50;;;-140.63;63.50
11302;BME280;5706;50.650;13.380;2023-02-08T02:50:13;56403.78;;;-140.63;63.50
11302;BME280;5706;50.650;13.380;2023-02-08T02:52:57;56407.75;;;-140.63;63.56
11302;BME280;5706;50.650;13.380;2023-02-08T02:55:32;56457.47;;;-140.63;63.63
11302;BME280;5706;50.650;13.380;2023-02-08T02:58:04;56399.81;;;-140.63;62.96
11302;BME280;5706;50.650;13.380;2023-02-08T03:00:33;56389.88;;;-140.63;63.60
11302;BME280;5706;50.650;13.380;2023-02-08T03:03:00;56425.66;;;-140.63;64.29
11302;BME280;5706;50.650;13.380;2023-02-08T03:05:30;56397.81;;;-140.63;64.52
11302;BME280;5706;50.650;13.380;2023-02-08T03:08:19;56409.75;;;-140.63;63.34
11302;BME280;5706;50.650;13.380;2023-02-08T03:11:10;56431.63;;;-140.63;64.01
11302;BME280;5706;50.650;13.380;2023-02-08T03:13:55;56415.72;;;-140.63;64.11
11302;BME280;5706;50.650;13.380;2023-02-08T03:16:36;56409.75;;;-140.63;63.84
11302;BME280;5706;50.650;13.380;2023-02-08T03:19:21;56397.81;;;-140.63;62.88
11302;BME280;5706;50.650;13.380;2023-02-08T03:22:00;56423.66;;;-140.63;63.67
11302;BME280;5706;50.650;13.380;2023-02-08T03:24:38;56439.56;;;-140.63;63.50
11302;BME280;5706;50.650;13.380;2023-02-08T03:27:15;56389.88;;;-140.63;63.95
11302;BME280;5706;50.650;13.380;2023-02-08T03:29:52;56427.66;;;-140.63;62.63
11302;BME280;5706;50.650;13.380;2023-02-08T03:32:31;56413.72;;;-140.63;63.03
11302;BME280;5706;50.650;13.380;2023-02-08T03:35:09;56441.56;;;-140.63;63.00
11302;BME280;5706;50.650;13.380;2023-02-08T03:37:49;56409.75;;;-140.63;64.16
11302;BME280;5706;50.650;13.380;2023-02-08T03:40:24;56415.72;;;-140.63;63.37
11302;BME280;5706;50.650;13.380;2023-02-08T03:43:06;56409.75;;;-140.63;62.43
11302;BME280;5706;50.650;13.380;2023-02-08T03:45:39;56409.75;;;-140.63;62.51
11302;BME280;5706;50.650;13.380;2023-02-08T03:48:12;56427.66;;;-140.63;63.44
11302;BME280;5706;50.650;13.380;2023-02-08T03:50:46;56409.75;;;-140.63;62.81
11302;BME280;5706;50.650;13.380;2023-02-08T03:53:20;56431.63;;;-140.63;62.49
11302;BME280;5706;50.650;13.380;2023-02-08T03:55:53;56421.69;;;-140.63;62.62
11302;BME280;5706;50.650;13.380;2023-02-08T03:58:30;56415.72;;;-140.63;62.69
11302;BME280;5706;50.650;13.380;2023-02-08T04:01:05;56433.59;;;-140.63;63.46
11302;BME280;5706;50.650;13.380;2023-02-08T04:03:39;56439.56;;;-140.63;62.79
11302;BME280;5706;50.650;13.380;2023-02-08T04:06:08;56381.91;;;-140.63;62.78
11302;BME280;5706;50.650;13.380;2023-02-08T04:08:37;56397.81;;;-140.63;62.92
11302;BME280;5706;50.650;13.380;2023-02-08T04:11:05;56419.69;;;-140.63;62.50
11302;BME280;5706;50.650;13.380;2023-02-08T04:13:32;56415.72;;;-140.63;63.39
11302;BME280;5706;50.650;13.380;2023-02-08T04:16:00;56403.78;;;-140.63;63.24
11302;BME280;5706;50.650;13.380;2023-02-08T04:18:28;56389.88;;;-140.63;63.14
11302;BME280;5706;50.650;13.380;2023-02-08T04:20:56;56407.75;;;-140.63;62.92
11302;BME280;5706;50.650;13.380;2023-02-08T04:23:24;56409.75;;;-140.63;62.79
11302;BME280;5706;50.650;13.380;2023-02-08T04:25:53;56453.50;;;-140.63;63.67
11302;BME280;5706;50.650;13.380;2023-02-08T04:28:20;56383.91;;;-140.63;62.74
11302;BME280;5706;50.650;13.380;2023-02-08T04:30:48;56417.69;;;-140.63;63.06
11302;BME280;5706;50.650;13.380;2023-02-08T04:33:15;56429.63;;;-140.63;63.60
11302;BME280;5706;50.650;13.380;2023-02-08T04:35:43;56385.88;;;-140.63;63.42
11302;BME280;5706;50.650;13.380;2023-02-08T04:38:11;56411.75;;;-140.63;63.95
11302;BME280;5706;50.650;13.380;2023-02-08T04:40:39;56435.59;;;-140.63;63.61
11302;BME280;5706;50.650;13.380;2023-02-08T04:43:08;56459.47;;;-140.63;63.86
11302;BME280;5706;50.650;13.380;2023-02-08T04:45:35;56379.94;;;-140.63;64.30
11302;BME280;5706;50.650;13.380;2023-02-08T04:48:03;56421.69;;;-140.63;65.07
11302;BME280;5706;50.650;13.380;2023-02-08T04:50:32;56399.81;;;-140.63;64.71
11302;BME280;5706;50.650;13.380;2023-02-08T04:53:00;56379.94;;;-140.63;64.41
11302;BME280;5706;50.650;13.380;2023-02-08T04:55:29;56405.78;;;-140.63;65.50
11302;BME280;5706;50.650;13.380;2023-02-08T04:57:57;56413.72;;;-140.63;64.63
11302;BME280;5706;50.650;13.380;2023-02-08T05:00:26;56417.69;;;-140.63;66.71
11302;BME280;5706;50.650;13.380;2023-02-08T05:02:54;56449.50;;;-140.63;65.29
11302;BME280;5706;50.650;13.380;2023-02-08T05:05:23;56449.50;;;-140.63;65.75
11302;BME280;5706;50.650;13.380;2023-02-08T05:07:51;56407.75;;;-140.63;63.99
11302;BME280;5706;50.650;13.380;2023-02-08T05:10:19;56409.75;;;-140.63;63.03
11302;BME280;5706;50.650;13.380;2023-02-08T05:12:47;56399.81;;;-140.63;62.69
11302;BME280;5706;50.650;13.380;2023-02-08T05:15:14;56439.56;;;-140.63;64.66
11302;BME280;5706;50.650;13.380;2023-02-08T05:17:43;56395.84;;;-140.63;65.75
11302;BME280;5706;50.650;13.380;2023-02-08T05:20:11;56433.59;;;-140.63;67.21
11302;BME280;5706;50.650;13.380;2023-02-08T05:22:39;56421.69;;;-140.63;68.14
11302;BME280;5706;50.650;13.380;2023-02-08T05:25:07;56471.38;;;-140.63;67.41
11302;BME280;5706;50.650;13.380;2023-02-08T05:27:35;56435.59;;;-140.63;67.35
11302;BME280;5706;50.650;13.380;2023-02-08T05:30:03;56419.69;;;-140.63;66.11
11302;BME280;5706;50.650;13.380;2023-02-08T05:32:32;56433.59;;;-140.63;65.27
11302;BME280;5706;50.650;13.380;2023-02-08T05:35:01;56439.56;;;-140.63;64.44
11302;BME280;5706;50.650;13.380;2023-02-08T05:37:29;56393.84;;;-140.63;64.35
11302;BME280;5706;50.650;13.380;2023-02-08T05:39:57;56397.81;;;-140.63;64.94
11302;BME280;5706;50.650;13.380;2023-02-08T05:42:24;56427.66;;;-140.63;64.42
11302;BME280;5706;50.650;13.380;2023-02-08T05:44:52;56435.59;;;-140.63;65.60
11302;BME280;5706;50.650;13.380;2023-02-08T05:47:20;56415.72;;;-140.63;65.71
11302;BME280;5706;50.650;13.380;2023-02-08T05:49:47;56443.56;;;-140.63;66.45
11302;BME280;5706;50.650;13.380;2023-02-08T05:52:16;56437.59;;;-140.63;68.31
11302;BME280;5706;50.650;13.380;2023-02-08T05:54:44;56421.69;;;-140.63;66.59
11302;BME280;5706;50.650;13.380;2023-02-08T05:57:11;56463.44;;;-140.63;66.81
11302;BME280;5706;50.650;13.380;2023-02-08T05:59:39;56453.50;;;-140.63;67.83
11302;BME280;5706;50.650;13.380;2023-02-08T06:02:07;56421.69;;;-140.63;68.54
11302;BME280;5706;50.650;13.380;2023-02-08T06:04:34;56413.72;;;-140.63;69.24
11302;BME280;5706;50.650;13.380;2023-02-08T06:07:02;56413.72;;;-140.63;70.53
11302;BME280;5706;50.650;13.380;2023-02-08T06:09:31;56445.53;;;-140.63;69.85
11302;BME280;5706;50.650;13.380;2023-02-08T06:11:58;56411.75;;;-140.63;70.00
11302;BME280;5706;50.650;13.380;2023-02-08T06:14:26;56387.88;;;-140.63;69.77
11302;BME280;5706;50.650;13.380;2023-02-08T06:16:53;56423.66;;;-140.63;69.39
11302;BME280;5706;50.650;13.380;2023-02-08T06:19:21;56437.59;;;-140.63;69.79
11302;BME280;5706;50.650;13.380;2023-02-08T06:21:48;56409.75;;;-140.63;69.03
11302;BME280;5706;50.650;13.380;2023-02-08T06:24:16;56439.56;;;-140.63;69.74
11302;BME280;5706;50.650;13.380;2023-02-08T06:26:45;56419.69;;;-140.63;69.36
11302;BME280;5706;50.650;13.380;2023-02-08T06:29:12;56413.72;;;-140.63;68.55
11302;BME280;5706;50.650;13.380;2023-02-08T06:31:40;56449.50;;;-140.63;69.57
11302;BME280;5706;50.650;13.380;2023-02-08T06:34:08;56407.75;;;-140.63;68.65
11302;BME280;5706;50.650;13.380;2023-02-08T06:36:35;56437.59;;;-140.63;68.87
11302;BME280;5706;50.650;13.380;2023-02-08T06:39:03;56425.66;;;-140.63;69.07
11302;BME280;5706;50.650;13.380;2023-02-08T06:41:30;56433.59;;;-140.63;69.33
11302;BME280;5706;50.650;13.380;2023-02-08T06:43:59;56453.50;;;-140.63;68.75
11302;BME280;5706;50.650;13.380;2023-02-08T06:46:27;56395.84;;;-140.63;68.29
11302;BME280;5706;50.650;13.380;2023-02-08T06:48:55;56429.63;;;-140.63;68.96
11302;BME280;5706;50.650;13.380;2023-02-08T06:51:24;56433.59;;;-140.63;67.94
11302;BME280;5706;50.650;13.380;2023-02-08T06:53:52;56405.78;;;-140.63;69.28
11302;BME280;5706;50.650;13.380;2023-02-08T06:56:19;56433.59;;;-140.63;69.21
11302;BME280;5706;50.650;13.380;2023-02-08T06:58:47;56429.63;;;-140.63;69.09
11302;BME280;5706;50.650;13.380;2023-02-08T07:01:16;56425.66;;;-140.63;68.92
11302;BME280;5706;50.650;13.380;2023-02-08T07:03:43;56391.84;;;-140.63;69.16
11302;BME280;5706;50.650;13.380;2023-02-08T07:06:12;56391.84;;;-140.63;69.51
11302;BME280;5706;50.650;13.380;2023-02-08T07:08:40;56421.69;;;-140.63;69.24
11302;BME280;5706;50.650;13.380;2023-02-08T07:11:08;56429.63;;;-140.63;68.39
11302;BME280;5706;50.650;13.380;2023-02-08T07:13:37;56449.50;;;-140.63;69.01
11302;BME280;5706;50.650;13.380;2023-02-08T07:16:06;56419.69;;;-140.63;69.19
11302;BME280;5706;50.650;13.380;2023-02-08T07:18:36;56423.66;;;-140.63;67.99
11302;BME280;5706;50.650;13.380;2023-02-08T07:21:04;56403.78;;;-140.63;68.46
11302;BME280;5706;50.650;13.380;2023-02-08T07:23:32;56415.72;;;-140.63;67.68
11302;BME280;5706;50.650;13.380;2023-02-08T07:26:02;56433.59;;;-140.63;67.71
11302;BME280;5706;50.650;13.380;2023-02-08T07:28:32;56427.66;;;-140.63;67.90
11302;BME280;5706;50.650;13.380;2023-02-08T07:31:03;56439.56;;;-140.63;67.79
11302;BME280;5706;50.650;13.380;2023-02-08T07:33:32;56441.56;;;-140.63;68.01
11302;BME280;5706;50.650;13.380;2023-02-08T07:36:01;56407.75;;;-140.63;68.08
11302;BME280;5706;50.650;13.380;2023-02-08T07:38:29;56443.56;;;-140.63;67.41
11302;BME280;5706;50.650;13.380;2023-02-08T07:41:01;56445.53;;;-140.63;67.56
11302;BME280;5706;50.650;13.380;2023-02-08T07:43:30;56403.78;;;-140.63;67.74
11302;BME280;5706;50.650;13.380;2023-02-08T07:46:04;56409.75;;;-140.63;66.94
11302;BME280;5706;50.650;13.380;2023-02-08T07:48:32;56455.47;;;-140.63;67.04
11302;BME280;5706;50.650;13.380;2023-02-08T07:51:02;56461.44;;;-140.63;67.29
11302;BME280;5706;50.650;13.380;2023-02-08T07:53:30;56435.59;;;-140.63;66.69
11302;BME280;5706;50.650;13.380;2023-02-08T07:55:58;56431.63;;;-140.63;66.43
11302;BME280;5706;50.650;13.380;2023-02-08T07:58:26;56427.66;;;-140.63;66.24
11302;BME280;5706;50.650;13.380;2023-02-08T08:00:54;56399.81;;;-140.63;66.55
11302;BME280;5706;50.650;13.380;2023-02-08T08:03:22;56427.66;;;-140.63;65.71
11302;BME280;5706;50.650;13.380;2023-02-08T08:05:50;56409.75;;;-140.63;66.09
11302;BME280;5706;50.650;13.380;2023-02-08T08:08:19;56415.72;;;-140.63;65.28
11302;BME280;5706;50.650;13.380;2023-02-08T08:10:47;56413.72;;;-140.63;65.15
11302;BME280;5706;50.650;13.380;2023-02-08T08:13:15;56415.72;;;-140.63;64.80
11302;BME280;5706;50.650;13.380;2023-02-08T08:15:42;56427.66;;;-140.63;65.79
11302;BME280;5706;50.650;13.380;2023-02-08T08:18:10;56421.69;;;-140.63;64.97
11302;BME280;5706;50.650;13.380;2023-02-08T08:20:37;56431.63;;;-140.63;65.33
11302;BME280;5706;50.650;13.380;2023-02-08T08:23:05;56429.63;;;-140.63;64.49
11302;BME280;5706;50.650;13.380;2023-02-08T08:25:35;56427.66;;;-140.63;64.62
11302;BME280;5706;50.650;13.380;2023-02-08T08:28:04;56403.78;;;-140.63;64.49
11302;BME280;5706;50.650;13.380;2023-02-08T08:30:31;56447.53;;;-140.63;64.02
11302;BME280;5706;50.650;13.380;2023-02-08T08:32:59;56439.56;;;-140.63;63.36
11302;BME280;5706;50.650;13.380;2023-02-08T08:35:27;56403.78;;;-140.63;63.07
11302;BME280;5706;50.650;13.380;2023-02-08T08:37:54;56391.84;;;-140.63;63.34
11302;BME280;5706;50.650;13.380;2023-02-08T08:40:22;56429.63;;;-140.63;64.22
11302;BME280;5706;50.650;13.380;2023-02-08T08:42:51;56395.84;;;-140.63;63.77
11302;BME280;5706;50.650;13.380;2023-02-08T08:45:19;56447.53;;;-140.63;65.09
11302;BME280;5706;50.650;13.380;2023-02-08T08:47:46;56401.78;;;-140.63;65.58
11302;BME280;5706;50.650;13.380;2023-02-08T08:50:14;56415.72;;;-140.63;65.48
11302;BME280;5706;50.650;13.380;2023-02-08T08:52:42;56435.59;;;-140.63;65.38
11302;BME280;5706;50.650;13.380;2023-02-08T08:55:10;56435.59;;;-140.63;66.38
11302;BME280;5706;50.650;13.380;2023-02-08T08:57:38;56435.59;;;-140.63;67.13
11302;BME280;5706;50.650;13.380;2023-02-08T09:00:08;56471.38;;;-140.63;65.93
11302;BME280;5706;50.650;13.380;2023-02-08T09:02:37;56395.84;;;-140.63;66.19
11302;BME280;5706;50.650;13.380;2023-02-08T09:05:05;56437.59;;;-140.63;65.58
11302;BME280;5706;50.650;13.380;2023-02-08T09:07:33;56403.78;;;-140.63;65.10
11302;BME280;5706;50.650;13.380;2023-02-08T09:10:01;56403.78;;;-140.63;65.67
11302;BME280;5706;50.650;13.380;2023-02-08T09:12:30;56427.66;;;-140.63;66.53
11302;BME280;5706;50.650;13.380;2023-02-08T09:14:57;56427.66;;;-140.63;67.03
11302;BME280;5706;50.650;13.380;2023-02-08T09:17:26;56413.72;;;-140.63;67.46
11302;BME280;5706;50.650;13.380;2023-02-08T09:19:54;56401.78;;;-140.63;67.63
11302;BME280;5706;50.650;13.380;2023-02-08T09:22:21;56383.91;;;-140.63;67.76
11302;BME280;5706;50.650;13.380;2023-02-08T09:24:51;56415.72;;;-140.63;67.11
11302;BME280;5706;50.650;13.380;2023-02-08T09:27:19;56427.66;;;-140.63;67.81
11302;BME280;5706;50.650;13.380;2023-02-08T09:29:47;56403.78;;;-140.63;67.64
11302;BME280;5706;50.650;13.380;2023-02-08T09:32:14;56429.63;;;-140.63;67.51
11302;BME280;5706;50.650;13.380;2023-02-08T09:34:43;56439.56;;;-140.63;66.68
11302;BME280;5706;50.650;13.380;2023-02-08T09:37:11;56433.59;;;-140.63;66.64
11302;BME280;5706;50.650;13.380;2023-02-08T09:39:40;56437.59;;;-140.63;66.29
11302;BME280;5706;50.650;13.380;2023-02-08T09:42:23;56417.69;;;-140.63;66.33
11302;BME280;5706;50.650;13.380;2023-02-08T09:45:04;56443.56;;;-140.63;66.74
11302;BME280;5706;50.650;13.380;2023-02-08T09:47:51;56415.72;;;-140.63;65.92
11302;BME280;5706;50.650;13.380;2023-02-08T09:50:29;56437.59;;;-140.63;66.37
11302;BME280;5706;50.650;13.380;2023-02-08T09:53:03;56427.66;;;-140.63;63.58
11302;BME280;5706;50.650;13.380;2023-02-08T09:55:38;56403.78;;;-140.63;63.31
11302;BME280;5706;50.650;13.380;2023-02-08T09:58:17;56413.72;;;-140.63;63.44
11302;BME280;5706;50.650;13.380;2023-02-08T10:00:50;56395.84;;;-140.63;62.69
11302;BME280;5706;50.650;13.380;2023-02-08T10:03:38;56397.81;;;-140.63;62.82
11302;BME280;5706;50.650;13.380;2023-02-08T10:06:13;56433.59;;;-140.63;63.00
11302;BME280;5706;50.650;13.380;2023-02-08T10:08:42;56411.75;;;-140.63;62.82
11302;BME280;5706;50.650;13.380;2023-02-08T10:11:25;56441.56;;;-140.63;63.27
11302;BME280;5706;50.650;13.380;2023-02-08T10:14:20;56415.72;;;-140.63;62.09
11302;BME280;5706;50.650;13.380;2023-02-08T10:17:04;56427.66;;;-140.63;61.73
11302;BME280;5706;50.650;13.380;2023-02-08T10:19:58;56415.72;;;-140.63;62.12
11302;BME280;5706;50.650;13.380;2023-02-08T10:22:40;56393.84;;;-140.63;63.26
11302;BME280;5706;50.650;13.380;2023-02-08T10:25:29;56403.78;;;-140.63;62.84
11302;BME280;5706;50.650;13.380;2023-02-08T10:28:23;56364.03;;;-140.63;62.80
11302;BME280;5706;50.650;13.380;2023-02-08T10:31:01;56429.63;;;-140.63;62.16
11302;BME280;5706;50.650;13.380;2023-02-08T10:33:45;56405.78;;;-140.63;61.34
11302;BME280;5706;50.650;13.380;2023-02-08T10:36:24;56405.78;;;-140.63;61.26
11302;BME280;5706;50.650;13.380;2023-02-08T10:38:57;56399.81;;;-140.63;59.98
11302;BME280;5706;50.650;13.380;2023-02-08T10:41:31;56425.66;;;-140.63;59.25
11302;BME280;5706;50.650;13.380;2023-02-08T10:44:04;56413.72;;;-140.63;58.25
11302;BME280;5706;50.650;13.380;2023-02-08T10:46:46;56403.78;;;-140.63;55.99
11302;BME280;5706;50.650;13.380;2023-02-08T10:49:24;56423.66;;;-140.63;56.62
11302;BME280;5706;50.650;13.380;2023-02-08T10:52:04;56413.72;;;-140.63;55.87
11302;BME280;5706;50.650;13.380;2023-02-08T10:54:34;56397.81;;;-140.63;53.28
11302;BME280;5706;50.650;13.380;2023-02-08T10:57:04;56393.84;;;-140.63;51.12
11302;BME280;5706;50.650;13.380;2023-02-08T10:59:45;56409.75;;;-140.63;48.07
11302;BME280;5706;50.650;13.380;2023-02-08T11:02:20;56387.88;;;-140.63;46.45
11302;BME280;5706;50.650;13.380;2023-02-08T11:04:58;56397.81;;;-140.63;46.23
11302;BME280;5706;50.650;13.380;2023-02-08T11:07:33;56364.03;;;-140.63;43.89
11302;BME280;5706;50.650;13.380;2023-02-08T11:13:41;56377.94;;;-140.63;42.58
11302;BME280;5706;50.650;13.380;2023-02-08T11:20:21;56389.88;;;-140.63;42.55
11302;BME280;5706;50.650;13.380;2023-02-08T11:23:39;56385.88;;;-140.63;42.73
11302;BME280;5706;50.650;13.380;2023-02-08T11:26:21;56397.81;;;-140.63;40.24
11302;BME280;5706;50.650;13.380;2023-02-08T11:29:02;56393.84;;;-140.63;42.18
11302;BME280;5706;50.650;13.380;2023-02-08T11:31:38;56397.81;;;-140.63;43.46
11302;BME280;5706;50.650;13.380;2023-02-08T11:34:12;56364.03;;;-140.63;43.39
11302;BME280;5706;50.650;13.380;2023-02-08T11:36:44;56366.00;;;-140.63;42.11
11302;BME280;5706;50.650;13.380;2023-02-08T11:39:20;56369.97;;;-140.63;42.05
11302;BME280;5706;50.650;13.380;2023-02-08T11:41:56;56405.78;;;-140.63;41.00
11302;BME280;5706;50.650;13.380;2023-02-08T11:44:31;56369.97;;;-140.63;43.19
11302;BME280;5706;50.650;13.380;2023-02-08T11:47:02;56369.97;;;-140.63;44.15
11302;BME280;5706;50.650;13.380;2023-02-08T11:49:37;56373.97;;;-140.63;43.72
11302;BME280;5706;50.650;13.380;2023-02-08T11:52:18;56369.97;;;-140.63;42.45
11302;BME280;5706;50.650;13.380;2023-02-08T11:55:13;56352.09;;;-140.63;42.81
11302;BME280;5706;50.650;13.380;2023-02-08T11:58:24;56368.00;;;-140.63;42.64
11302;BME280;5706;50.650;13.380;2023-02-08T12:00:58;56352.09;;;-140.63;44.52
11302;BME280;5706;50.650;13.380;2023-02-08T12:03:30;56338.16;;;-140.63;45.40
11302;BME280;5706;50.650;13.380;2023-02-08T12:06:14;56362.03;;;-140.63;44.60
11302;BME280;5706;50.650;13.380;2023-02-08T12:08:59;56381.91;;;-140.63;44.02
11302;BME280;5706;50.650;13.380;2023-02-08T12:11:39;56332.22;;;-140.63;42.48
11302;BME280;5706;50.650;13.380;2023-02-08T12:14:28;56342.16;;;-140.63;43.85
11302;BME280;5706;50.650;13.380;2023-02-08T12:17:23;56368.00;;;-140.63;43.55
11302;BME280;5706;50.650;13.380;2023-02-08T12:20:28;56346.13;;;-140.63;45.09
11302;BME280;5706;50.650;13.380;2023-02-08T12:23:19;56338.16;;;-140.63;44.19
11302;BME280;5706;50.650;13.380;2023-02-08T12:26:06;56373.97;;;-140.63;46.21
11302;BME280;5706;50.650;13.380;2023-02-08T12:28:52;56366.00;;;-140.63;47.82
11302;BME280;5706;50.650;13.380;2023-02-08T12:31:44;56346.13;;;-140.63;50.29
11302;BME280;5706;50.650;13.380;2023-02-08T12:34:27;56383.91;;;-140.63;51.02
11302;BME280;5706;50.650;13.380;2023-02-08T12:37:15;56407.75;;;-140.63;51.80
11302;BME280;5706;50.650;13.380;2023-02-08T12:40:19;56389.88;;;-140.63;52.30
11302;BME280;5706;50.650;13.380;2023-02-08T12:43:27;56391.84;;;-140.63;52.13
11302;BME280;5706;50.650;13.380;2023-02-08T12:46:23;56409.75;;;-140.63;53.76
11302;BME280;5706;50.650;13.380;2023-02-08T12:49:27;56415.72;;;-140.63;53.19
11302;BME280;5706;50.650;13.380;2023-02-08T12:52:19;56377.94;;;-140.63;53.33
11302;BME280;5706;50.650;13.380;2023-02-08T12:54:59;56344.13;;;-140.63;54.07
11302;BME280;5706;50.650;13.380;2023-02-08T12:57:32;56381.91;;;-140.63;53.63
11302;BME280;5706;50.650;13.380;2023-02-08T13:00:02;56391.84;;;-140.63;53.84
11302;BME280;5706;50.650;13.380;2023-02-08T13:02:36;56395.84;;;-140.63;54.92
11302;BME280;5706;50.650;13.380;2023-02-08T13:09:19;56409.75;;;-140.63;56.09
11302;BME280;5706;50.650;13.380;2023-02-08T13:11:58;56371.97;;;-140.63;56.23
11302;BME280;5706;50.650;13.380;2023-02-08T13:14:33;56383.91;;;-140.63;55.75
11302;BME280;5706;50.650;13.380;2023-02-08T13:17:12;56411.75;;;-140.63;55.12
11302;BME280;5706;50.650;13.380;2023-02-08T13:19:53;56407.75;;;-140.63;55.59
11302;BME280;5706;50.650;13.380;2023-02-08T13:22:26;56393.84;;;-140.63;55.16
11302;BME280;5706;50.650;13.380;2023-02-08T13:24:58;56393.84;;;-140.63;56.10
11302;BME280;5706;50.650;13.380;2023-02-08T13:27:29;56377.94;;;-140.63;56.11